Time;durP1;ratioP1;P1;durP2;ratioP2;P2;SDS_P1;SDS_P2;PMS_P1;PMS_P2;Temp;Humidity;BMP_temperature;BMP_pressure;BME280_temperature;BME280_humidity;BME280_pressure;Samples;Min_cycle;Max_cycle;Signal;HPM_P1;HPM_P2
2021/03/04 00:00:36;;;;;;;6.10;3.40;;;5.70;99.90;;;;;;2086440;28;20259;-68
2021/03/04 00:01:37;;;;;;;5.25;3.28;;;5.70;99.90;;;;;;2089720;28;20183;-67
2021/03/04 00:02:38;;;;;;;5.40;3.70;;;5.70;97.60;;;;;;2094076;28;20191;-65
2021/03/04 00:03:39;;;;;;;7.45;3.25;;;5.80;85.10;;;;;;2098041;28;20186;-65
2021/03/04 00:04:40;;;;;;;5.80;3.33;;;6.00;84.40;;;;;;2094360;28;20222;-66
2021/03/04 00:05:40;;;;;;;4.77;2.97;;;6.10;85.40;;;;;;2090154;28;20179;-67
2021/03/04 00:06:41;;;;;;;6.00;3.40;;;6.30;69.30;;;;;;2094440;28;20179;-66
2021/03/04 00:07:42;;;;;;;4.90;3.13;;;6.40;67.20;;;;;;2098402;28;20233;-67
2021/03/04 00:08:43;;;;;;;6.33;3.53;;;6.60;65.70;;;;;;2093849;28;20207;-65
2021/03/04 00:09:43;;;;;;;4.73;3.43;;;6.70;66.40;;;;;;2089640;28;20460;-67
2021/03/04 00:10:44;;;;;;;7.00;3.80;;;6.80;63.80;;;;;;2089363;28;20554;-67
2021/03/04 00:11:45;;;;;;;4.77;3.40;;;6.90;62.90;;;;;;2089343;28;20230;-67
2021/03/04 00:12:46;;;;;;;5.70;3.50;;;7.00;63.60;;;;;;2090508;28;20177;-65
2021/03/04 00:13:47;;;;;;;7.13;4.07;;;7.00;82.50;;;;;;2081349;28;20691;-66
2021/03/04 00:14:47;;;;;;;6.57;3.40;;;7.00;66.20;;;;;;2082216;28;20203;-66
2021/03/04 00:15:50;;;;;;;5.63;3.80;;;7.10;65.70;;;;;;2091199;28;20658;-65
2021/03/04 00:16:51;;;;;;;5.15;3.60;;;7.10;65.10;;;;;;2091149;28;20192;-65
2021/03/04 00:17:51;;;;;;;5.97;3.47;;;7.10;60.50;;;;;;2091069;28;20212;-65
2021/03/04 00:18:52;;;;;;;4.90;3.70;;;7.20;58.60;;;;;;2091006;28;20202;-65
2021/03/04 00:19:53;;;;;;;7.43;3.83;;;7.30;59.00;;;;;;2090958;28;20203;-66
2021/03/04 00:20:54;;;;;;;5.83;3.57;;;7.40;58.90;;;;;;2089584;28;20226;-65
2021/03/04 00:21:54;;;;;;;5.90;4.00;;;7.40;59.40;;;;;;2090123;28;20176;-65
2021/03/04 00:22:55;;;;;;;5.67;4.00;;;7.40;58.40;;;;;;2092812;28;20259;-65
2021/03/04 00:23:56;;;;;;;6.80;3.57;;;7.50;58.20;;;;;;2090302;28;20666;-65
2021/03/04 00:24:56;;;;;;;7.53;3.97;;;7.50;58.70;;;;;;2090144;28;20210;-65
2021/03/04 00:25:57;;;;;;;5.83;3.80;;;7.50;59.00;;;;;;2090162;28;20183;-65
2021/03/04 00:26:58;;;;;;;6.10;3.90;;;7.50;59.10;;;;;;2081336;28;20189;-65
2021/03/04 00:27:59;;;;;;;6.18;4.05;;;7.50;59.30;;;;;;2081245;28;20284;-65
2021/03/04 00:29:01;;;;;;;5.83;3.90;;;7.50;59.30;;;;;;2090171;28;20200;-65
2021/03/04 00:30:05;;;;;;;4.82;3.45;;;7.40;59.00;;;;;;2090459;28;20427;-65
2021/03/04 00:31:06;;;;;;;5.47;3.70;;;7.40;59.90;;;;;;2089686;28;20192;-66
2021/03/04 00:32:07;;;;;;;8.40;3.40;;;7.50;60.40;;;;;;2090301;28;20191;-65
2021/03/04 00:33:08;;;;;;;5.50;3.60;;;7.50;57.20;;;;;;2090234;28;20185;-65
2021/03/04 00:34:09;;;;;;;5.33;4.27;;;7.50;58.40;;;;;;2090292;28;20181;-65
2021/03/04 00:35:10;;;;;;;6.63;3.73;;;7.50;57.60;;;;;;2090286;28;20206;-66
2021/03/04 00:36:11;;;;;;;4.53;3.55;;;7.60;58.60;;;;;;2090139;28;20230;-65
2021/03/04 00:37:11;;;;;;;6.50;3.83;;;7.70;56.20;;;;;;2089390;28;20649;-65
2021/03/04 00:38:12;;;;;;;5.73;3.60;;;7.70;55.90;;;;;;2089873;28;20737;-65
2021/03/04 00:39:13;;;;;;;6.27;4.13;;;7.70;55.40;;;;;;2089822;28;20180;-65
2021/03/04 00:40:18;;;;;;;6.20;4.20;;;7.80;55.70;;;;;;2089743;28;20184;-65
2021/03/04 00:41:18;;;;;;;5.88;3.67;;;7.80;58.10;;;;;;2089352;28;20503;-65
2021/03/04 00:42:19;;;;;;;4.90;3.57;;;7.80;57.40;;;;;;2090063;28;20238;-66
2021/03/04 00:43:20;;;;;;;6.33;4.00;;;7.80;56.40;;;;;;2080848;28;20565;-65
2021/03/04 00:44:21;;;;;;;5.33;3.73;;;7.80;57.30;;;;;;2081430;28;20181;-65
2021/03/04 00:45:24;;;;;;;5.57;3.43;;;7.80;57.70;;;;;;2090016;28;20227;-65
2021/03/04 00:46:24;;;;;;;7.03;4.20;;;7.80;58.20;;;;;;2090154;28;20227;-65
2021/03/04 00:47:25;;;;;;;4.90;3.50;;;7.70;58.90;;;;;;2081129;28;20196;-65
2021/03/04 00:48:26;;;;;;;6.83;3.57;;;7.70;56.90;;;;;;2081215;28;20244;-65
2021/03/04 00:49:26;;;;;;;5.70;3.43;;;7.70;56.60;;;;;;2089814;28;20197;-65
2021/03/04 00:50:27;;;;;;;6.13;3.63;;;7.80;56.80;;;;;;2090108;28;20710;-65
2021/03/04 00:51:28;;;;;;;5.87;3.60;;;7.80;55.70;;;;;;2089379;28;20204;-65
2021/03/04 00:52:29;;;;;;;5.90;3.72;;;7.70;58.80;;;;;;2090151;28;20207;-65
2021/03/04 00:53:29;;;;;;;5.07;3.20;;;7.70;56.20;;;;;;2080882;28;20181;-65
2021/03/04 00:54:30;;;;;;;6.70;4.40;;;7.70;56.70;;;;;;2081263;28;20608;-67
2021/03/04 00:55:32;;;;;;;6.20;3.50;;;7.80;52.90;;;;;;2089965;28;20172;-65
2021/03/04 00:56:33;;;;;;;6.35;3.85;;;7.90;52.90;;;;;;2090019;28;20548;-65
2021/03/04 00:57:34;;;;;;;6.20;4.05;;;8.00;52.10;;;;;;2090010;28;20176;-65
2021/03/04 00:58:35;;;;;;;5.93;3.70;;;8.10;51.80;;;;;;2089971;28;20196;-65
2021/03/04 00:59:36;;;;;;;6.87;4.03;;;8.10;51.90;;;;;;2089639;28;20200;-65
2021/03/04 01:00:36;;;;;;;5.43;3.77;;;8.20;52.50;;;;;;2089921;28;20630;-67
2021/03/04 01:01:37;;;;;;;6.67;3.63;;;8.20;52.40;;;;;;2089060;28;20168;-65
2021/03/04 01:02:38;;;;;;;4.83;3.10;;;8.20;53.00;;;;;;2089849;28;20222;-65
2021/03/04 01:03:38;;;;;;;6.83;4.00;;;8.10;53.30;;;;;;2089988;28;20761;-65
2021/03/04 01:04:39;;;;;;;7.13;4.20;;;8.10;53.00;;;;;;2081018;28;20278;-65
2021/03/04 01:05:40;;;;;;;7.37;3.80;;;8.10;52.30;;;;;;2072723;28;20206;-65
2021/03/04 01:06:40;;;;;;;6.07;4.10;;;8.20;52.40;;;;;;2081172;28;20718;-65
2021/03/04 01:07:41;;;;;;;8.07;4.03;;;8.20;52.50;;;;;;2089861;28;20644;-65
2021/03/04 01:08:44;;;;;;;5.23;3.33;;;8.20;53.00;;;;;;2089126;28;20228;-65
2021/03/04 01:09:44;;;;;;;6.05;3.63;;;8.20;55.30;;;;;;2089284;28;20771;-66
2021/03/04 01:10:45;;;;;;;5.97;3.70;;;8.20;54.10;;;;;;2089866;28;20195;-65
2021/03/04 01:11:46;;;;;;;5.67;3.80;;;8.20;53.00;;;;;;2089447;28;20271;-65
2021/03/04 01:12:47;;;;;;;5.83;3.80;;;8.20;52.50;;;;;;2089912;28;20263;-65
2021/03/04 01:13:48;;;;;;;4.80;3.13;;;8.30;52.30;;;;;;2090065;28;20302;-65
2021/03/04 01:14:48;;;;;;;4.82;3.60;;;8.20;52.30;;;;;;2090000;28;20197;-65
2021/03/04 01:15:49;;;;;;;7.80;3.97;;;8.30;52.90;;;;;;2089649;28;20212;-65
2021/03/04 01:16:50;;;;;;;5.87;3.80;;;8.20;51.30;;;;;;2089956;28;20207;-66
2021/03/04 01:17:51;;;;;;;5.00;3.37;;;8.30;51.40;;;;;;2089741;28;20230;-66
2021/03/04 01:18:52;;;;;;;5.40;3.55;;;8.30;52.20;;;;;;2080999;28;20192;-65
2021/03/04 01:19:53;;;;;;;4.78;3.67;;;8.30;53.70;;;;;;2081132;28;20185;-65
2021/03/04 01:20:53;;;;;;;6.83;3.67;;;8.30;53.10;;;;;;2088871;28;20172;-65
2021/03/04 01:21:54;;;;;;;4.00;3.33;;;8.30;53.20;;;;;;2089872;28;20179;-65
2021/03/04 01:22:56;;;;;;;4.83;3.53;;;8.30;51.70;;;;;;2089192;28;20665;-65
2021/03/04 01:23:56;;;;;;;4.78;3.42;;;8.30;52.60;;;;;;2089819;28;20200;-65
2021/03/04 01:24:57;;;;;;;6.77;3.70;;;8.30;52.80;;;;;;2089775;28;20974;-65
2021/03/04 01:25:59;;;;;;;5.70;3.73;;;8.30;52.80;;;;;;2089700;28;20184;-65
2021/03/04 01:26:59;;;;;;;5.85;3.63;;;8.20;53.80;;;;;;2089642;28;20197;-65
2021/03/04 01:28:00;;;;;;;5.17;3.47;;;8.10;55.00;;;;;;2089788;28;20560;-65
2021/03/04 01:29:01;;;;;;;6.77;3.40;;;8.10;56.80;;;;;;2089545;28;20201;-65
2021/03/04 01:30:05;;;;;;;6.05;3.83;;;8.10;57.60;;;;;;2081067;28;20189;-65
2021/03/04 01:31:06;;;;;;;5.75;4.00;;;8.10;58.70;;;;;;2098931;22;20232;-62
2021/03/04 01:32:07;;;;;;;6.53;3.93;;;8.10;60.00;;;;;;2097722;28;20184;-62
2021/03/04 01:33:08;;;;;;;7.15;3.63;;;8.10;62.80;;;;;;2088840;28;20206;-62
2021/03/04 01:34:09;;;;;;;7.30;4.13;;;7.90;64.70;;;;;;2089234;28;20184;-61
2021/03/04 01:35:10;;;;;;;5.20;3.33;;;7.80;66.30;;;;;;2097802;28;20203;-61
2021/03/04 01:36:11;;;;;;;8.02;3.80;;;7.70;69.30;;;;;;2098217;28;20183;-60
2021/03/04 01:37:12;;;;;;;5.53;3.40;;;7.60;68.60;;;;;;2097820;28;20721;-62
2021/03/04 01:38:13;;;;;;;5.87;3.40;;;7.70;68.80;;;;;;2098162;28;20639;-62
2021/03/04 01:39:14;;;;;;;4.95;3.50;;;7.60;66.40;;;;;;2097924;28;20175;-61
2021/03/04 01:40:22;;;;;;;6.07;3.60;;;7.60;65.50;;;;;;2098292;28;20187;-62
2021/03/04 01:41:23;;;;;;;4.72;3.47;;;7.70;65.70;;;;;;2097068;28;20206;-62
2021/03/04 01:42:23;;;;;;;5.53;3.23;;;7.60;67.80;;;;;;2097984;28;20551;-62
2021/03/04 01:43:24;;;;;;;6.23;3.40;;;7.60;65.70;;;;;;2097945;28;20183;-62
2021/03/04 01:44:25;;;;;;;4.87;3.33;;;7.50;63.60;;;;;;2098116;28;20215;-62
2021/03/04 01:45:26;;;;;;;7.87;3.40;;;7.60;63.00;;;;;;2098066;28;20214;-62
2021/03/04 01:46:26;;;;;;;5.57;3.70;;;7.60;63.10;;;;;;2098173;28;20183;-62
2021/03/04 01:47:27;;;;;;;7.10;3.30;;;7.60;62.10;;;;;;2089003;28;20230;-62
2021/03/04 01:48:29;;;;;;;4.50;3.17;;;7.60;63.80;;;;;;2081134;28;20185;-62
2021/03/04 01:49:29;;;;;;;5.53;3.30;;;7.50;67.20;;;;;;2089082;28;20675;-62
2021/03/04 01:50:31;;;;;;;5.17;3.40;;;7.50;67.50;;;;;;2098260;28;20258;-62
2021/03/04 01:51:32;;;;;;;5.55;3.38;;;7.50;69.00;;;;;;2097413;28;20180;-61
2021/03/04 01:52:32;;;;;;;4.77;3.33;;;7.50;69.40;;;;;;2097902;28;20176;-62
2021/03/04 01:53:33;;;;;;;6.50;3.47;;;7.40;70.20;;;;;;2097852;28;20179;-62
2021/03/04 01:54:35;;;;;;;4.95;3.65;;;7.40;75.90;;;;;;2089170;28;20180;-62
2021/03/04 01:55:36;;;;;;;5.57;3.28;;;7.40;77.40;;;;;;2089214;28;20259;-61
2021/03/04 01:56:37;;;;;;;5.15;3.05;;;7.30;78.10;;;;;;2097915;28;20180;-60
2021/03/04 01:57:38;;;;;;;5.93;3.77;;;7.30;78.10;;;;;;2097755;28;20220;-62
2021/03/04 01:58:39;;;;;;;6.03;3.65;;;7.30;79.60;;;;;;2098008;28;20176;-62
2021/03/04 01:59:40;;;;;;;6.40;3.37;;;7.30;78.90;;;;;;2097851;28;20183;-61
2021/03/04 02:00:41;;;;;;;5.75;3.30;;;7.30;80.70;;;;;;2097870;28;20471;-63
2021/03/04 02:01:42;;;;;;;4.43;3.13;;;7.20;88.70;;;;;;2097435;28;20753;-60
2021/03/04 02:02:43;;;;;;;5.93;3.10;;;7.20;91.40;;;;;;2088969;28;20185;-62
2021/03/04 02:03:44;;;;;;;7.88;3.35;;;7.10;92.90;;;;;;2088911;28;20203;-61
2021/03/04 02:04:44;;;;;;;6.90;2.93;;;7.10;92.90;;;;;;2097779;28;20210;-62
2021/03/04 02:05:45;;;;;;;7.20;2.97;;;7.00;92.70;;;;;;2097801;28;20191;-62
2021/03/04 02:07:18;;;;;;;6.03;3.27;;;6.90;93.30;;;;;;2088865;28;20571;-62
2021/03/04 02:08:28;;;;;;;6.30;2.83;;;6.80;89.70;;;;;;2051895;28;20373;-63
2021/03/04 02:09:31;;;;;;;5.18;3.17;;;6.90;93.20;;;;;;2088886;28;20200;-63
2021/03/04 02:10:49;;;;;;;5.35;2.53;;;6.90;93.50;;;;;;2088846;28;20241;-59
2021/03/04 02:11:57;;;;;;;6.47;3.08;;;6.80;94.70;;;;;;2091578;28;20201;-62
2021/03/04 02:13:16;;;;;;;4.40;3.30;;;6.60;95.80;;;;;;2088864;28;20175;-59
2021/03/04 02:14:48;;;;;;;4.05;2.67;;;6.60;95.60;;;;;;2091295;28;20167;-62
2021/03/04 02:16:12;;;;;;;3.60;3.00;;;6.40;97.80;;;;;;2091559;28;20194;-60
2021/03/04 02:17:14;;;;;;;5.05;2.97;;;6.40;96.30;;;;;;2088918;28;20255;-62
2021/03/04 02:18:17;;;;;;;6.45;3.15;;;6.40;97.20;;;;;;2089104;28;20203;-62
2021/03/04 02:19:46;;;;;;;4.63;2.72;;;6.30;97.60;;;;;;2088248;28;20651;-61
2021/03/04 02:21:00;;;;;;;4.97;3.28;;;6.30;95.40;;;;;;2092848;28;20332;-62
2021/03/04 02:22:28;;;;;;;5.18;3.22;;;6.30;94.70;;;;;;2098277;28;20183;-63
2021/03/04 02:24:27;;;;;;;4.05;2.80;;;6.30;96.50;;;;;;2097655;28;20228;-63
2021/03/04 02:25:38;;;;;;;5.35;2.90;;;6.40;97.80;;;;;;2097513;28;20194;-60
2021/03/04 02:27:05;;;;;;;6.18;3.17;;;6.30;96.90;;;;;;2097911;28;20175;-62
2021/03/04 02:28:06;;;;;;;5.43;2.78;;;6.30;95.90;;;;;;2097828;28;20195;-63
2021/03/04 02:29:10;;;;;;;4.82;3.03;;;6.30;92.50;;;;;;2088754;28;20236;-61
2021/03/04 02:30:16;;;;;;;5.28;3.25;;;6.30;91.70;;;;;;2080833;28;20198;-62
2021/03/04 02:31:19;;;;;;;6.32;3.20;;;6.30;93.30;;;;;;2088737;28;20587;-62
2021/03/04 02:32:25;;;;;;;5.47;3.10;;;6.30;92.00;;;;;;2089003;28;20654;-62
2021/03/04 02:33:29;;;;;;;6.82;3.20;;;6.40;92.30;;;;;;2081306;28;20168;-60
2021/03/04 02:34:31;;;;;;;4.22;3.03;;;6.40;90.90;;;;;;2088487;28;20187;-62
2021/03/04 02:35:35;;;;;;;5.18;3.60;;;6.50;84.00;;;;;;2088650;28;20667;-62
2021/03/04 02:36:37;;;;;;;6.32;3.67;;;6.60;80.20;;;;;;2089206;28;20686;-62
2021/03/04 02:37:44;;;;;;;7.13;3.67;;;6.60;79.70;;;;;;2096866;28;20186;-62
2021/03/04 02:38:45;;;;;;;4.80;3.47;;;6.70;83.10;;;;;;2088812;28;20275;-62
2021/03/04 02:39:49;;;;;;;5.40;3.25;;;6.60;82.30;;;;;;2080400;28;20180;-62
2021/03/04 02:40:52;;;;;;;4.93;3.05;;;6.60;85.90;;;;;;2080285;28;20775;-63
2021/03/04 02:41:54;;;;;;;9.43;3.63;;;6.70;78.60;;;;;;2080926;28;20184;-62
2021/03/04 02:42:55;;;;;;;6.30;3.60;;;6.70;78.10;;;;;;2088957;28;20203;-60
2021/03/04 02:44:00;;;;;;;5.53;4.05;;;6.80;78.20;;;;;;2097462;28;20186;-60
2021/03/04 02:45:02;;;;;;;4.90;3.50;;;6.80;70.10;;;;;;2088795;28;20272;-61
2021/03/04 02:46:03;;;;;;;5.97;3.95;;;6.90;72.50;;;;;;2088563;28;20720;-63
2021/03/04 02:47:04;;;;;;;6.70;4.20;;;6.90;73.10;;;;;;2088660;28;20553;-62
2021/03/04 02:48:06;;;;;;;6.03;4.32;;;7.00;65.30;;;;;;2088442;28;20253;-60
2021/03/04 02:49:08;;;;;;;7.22;4.03;;;7.10;64.00;;;;;;2088761;28;20207;-62
2021/03/04 02:50:11;;;;;;;5.60;4.05;;;7.20;63.70;;;;;;2097418;28;20183;-62
2021/03/04 02:51:12;;;;;;;7.38;4.38;;;7.20;64.20;;;;;;2087722;28;20231;-62
2021/03/04 02:52:16;;;;;;;6.77;3.73;;;7.30;65.20;;;;;;2088720;28;20635;-61
2021/03/04 02:53:18;;;;;;;7.55;4.10;;;7.30;66.30;;;;;;2088680;28;20187;-62
2021/03/04 02:54:19;;;;;;;7.07;4.50;;;7.30;65.50;;;;;;2088788;28;20190;-62
2021/03/04 02:55:23;;;;;;;9.00;4.07;;;7.30;62.10;;;;;;2088686;28;20172;-61
2021/03/04 02:56:25;;;;;;;7.68;3.92;;;7.40;62.40;;;;;;2088523;28;20187;-62
2021/03/04 02:57:27;;;;;;;10.07;4.30;;;7.30;64.30;;;;;;2088659;28;20219;-62
2021/03/04 02:58:29;;;;;;;7.32;4.05;;;7.40;64.00;;;;;;2088399;28;20655;-62
2021/03/04 02:59:31;;;;;;;7.45;4.00;;;7.30;62.60;;;;;;2080221;28;20693;-62
2021/03/04 03:00:33;;;;;;;5.35;3.53;;;7.40;61.60;;;;;;2080471;28;20243;-62
2021/03/04 03:01:34;;;;;;;5.97;4.10;;;7.40;63.20;;;;;;2087963;28;20187;-62
2021/03/04 03:02:36;;;;;;;5.20;3.97;;;7.40;63.20;;;;;;2097539;28;20244;-62
2021/03/04 03:03:38;;;;;;;7.28;4.00;;;7.40;62.30;;;;;;2097344;28;20176;-62
2021/03/04 03:04:41;;;;;;;8.25;4.45;;;7.40;63.10;;;;;;2088637;28;20180;-61
2021/03/04 03:05:45;;;;;;;7.50;4.40;;;7.40;64.90;;;;;;2089064;28;20183;-62
2021/03/04 03:06:46;;;;;;;6.65;4.43;;;7.40;64.90;;;;;;2097592;28;20282;-61
2021/03/04 03:07:49;;;;;;;7.30;4.47;;;7.40;63.50;;;;;;2088440;28;20180;-62
2021/03/04 03:08:51;;;;;;;5.20;3.75;;;7.30;66.80;;;;;;2080546;28;20189;-60
2021/03/04 03:09:52;;;;;;;6.40;3.50;;;7.30;75.90;;;;;;2082562;28;20210;-62
2021/03/04 03:10:53;;;;;;;5.72;3.60;;;7.20;84.60;;;;;;2087878;28;20640;-63
2021/03/04 03:11:54;;;;;;;4.75;3.67;;;7.20;80.10;;;;;;2096688;28;20221;-62
2021/03/04 03:12:57;;;;;;;7.75;4.07;;;7.10;79.40;;;;;;2097379;28;20186;-62
2021/03/04 03:13:59;;;;;;;5.28;3.70;;;7.00;77.30;;;;;;2096707;28;20176;-62
2021/03/04 03:15:01;;;;;;;4.50;3.33;;;7.00;78.60;;;;;;2088886;28;20187;-62
2021/03/04 03:16:01;;;;;;;6.25;3.60;;;7.00;79.10;;;;;;2088701;28;20259;-63
2021/03/04 03:17:03;;;;;;;6.00;3.70;;;7.00;77.20;;;;;;2096945;28;20544;-61
2021/03/04 03:18:05;;;;;;;6.68;4.18;;;7.00;77.70;;;;;;2104956;28;20268;-62
2021/03/04 03:19:06;;;;;;;5.07;3.90;;;7.00;75.40;;;;;;2105114;28;20190;-62
2021/03/04 03:20:11;;;;;;;7.07;3.90;;;6.90;74.20;;;;;;2097408;28;20180;-61
2021/03/04 03:21:12;;;;;;;6.90;4.25;;;6.90;74.90;;;;;;2096931;28;20210;-62
2021/03/04 03:22:12;;;;;;;5.93;4.20;;;6.90;71.60;;;;;;2097348;28;20599;-62
2021/03/04 03:23:13;;;;;;;6.23;4.20;;;6.90;67.70;;;;;;2097662;28;20271;-62
2021/03/04 03:24:14;;;;;;;6.70;4.17;;;7.00;65.10;;;;;;2097425;28;20721;-62
2021/03/04 03:25:15;;;;;;;7.77;4.53;;;7.10;64.30;;;;;;2097589;28;20187;-61
2021/03/04 03:26:16;;;;;;;7.05;4.30;;;7.10;63.70;;;;;;2097334;28;20180;-61
2021/03/04 03:27:17;;;;;;;6.87;4.17;;;7.20;63.10;;;;;;2097604;28;20263;-61
2021/03/04 03:28:17;;;;;;;8.27;4.60;;;7.20;63.20;;;;;;2097335;28;20180;-62
2021/03/04 03:29:18;;;;;;;8.40;4.37;;;7.20;62.60;;;;;;2097323;28;20203;-61
2021/03/04 03:30:22;;;;;;;8.20;4.37;;;7.20;61.40;;;;;;2097511;28;20190;-62
2021/03/04 03:31:26;;;;;;;6.75;4.28;;;7.30;61.80;;;;;;2096053;28;20213;-62
2021/03/04 03:32:31;;;;;;;7.30;4.32;;;7.20;62.20;;;;;;2097004;28;20183;-62
2021/03/04 03:33:32;;;;;;;7.80;4.10;;;7.30;62.30;;;;;;2097609;28;20183;-62
2021/03/04 03:34:33;;;;;;;6.43;4.40;;;7.20;64.70;;;;;;2104925;28;20576;-62
2021/03/04 03:35:35;;;;;;;5.93;3.67;;;7.20;63.70;;;;;;2105248;28;20214;-62
2021/03/04 03:36:36;;;;;;;8.40;4.18;;;7.30;64.70;;;;;;2096648;28;20956;-62
2021/03/04 03:37:37;;;;;;;8.32;4.70;;;7.20;63.00;;;;;;2096871;28;20180;-63
2021/03/04 03:38:38;;;;;;;7.83;4.30;;;7.30;60.70;;;;;;2096841;28;20573;-62
2021/03/04 03:39:40;;;;;;;6.00;3.73;;;7.40;61.00;;;;;;2096865;28;20456;-62
2021/03/04 03:40:45;;;;;;;6.65;4.13;;;7.40;59.90;;;;;;2096716;28;20846;-62
2021/03/04 03:41:46;;;;;;;5.45;3.80;;;7.40;61.40;;;;;;2096995;28;20254;-62
2021/03/04 03:42:47;;;;;;;7.00;3.97;;;7.30;61.80;;;;;;2096773;28;20823;-60
2021/03/04 03:43:49;;;;;;;7.60;4.00;;;7.30;61.80;;;;;;2096824;28;20180;-62
2021/03/04 03:44:52;;;;;;;5.88;4.13;;;7.30;62.50;;;;;;2096743;28;20179;-60
2021/03/04 03:45:54;;;;;;;9.07;4.40;;;7.30;65.10;;;;;;2089582;28;20194;-62
2021/03/04 03:46:55;;;;;;;6.75;3.85;;;7.30;65.20;;;;;;2098330;28;20192;-62
2021/03/04 03:47:56;;;;;;;6.60;4.20;;;7.20;70.70;;;;;;2098408;28;20175;-62
2021/03/04 03:49:05;;;;;;;7.38;4.03;;;7.20;68.60;;;;;;2098889;28;20869;-62
2021/03/04 03:50:06;;;;;;;6.82;3.95;;;7.20;69.60;;;;;;2099095;28;20172;-62
2021/03/04 03:51:09;;;;;;;9.05;4.07;;;7.20;71.60;;;;;;2098206;28;20887;-62
2021/03/04 03:52:10;;;;;;;4.97;3.40;;;7.10;74.50;;;;;;2098395;28;20717;-62
2021/03/04 03:53:13;;;;;;;6.00;3.50;;;7.10;76.60;;;;;;2098379;28;20172;-62
2021/03/04 03:54:14;;;;;;;7.63;4.03;;;7.10;76.90;;;;;;2099100;28;20176;-62
2021/03/04 03:55:17;;;;;;;8.48;3.67;;;7.10;79.40;;;;;;2098987;28;20209;-62
2021/03/04 03:56:20;;;;;;;5.78;3.67;;;7.10;78.90;;;;;;2106651;28;20182;-63
2021/03/04 03:57:21;;;;;;;6.13;3.70;;;7.00;82.00;;;;;;2098268;28;20214;-62
2021/03/04 03:58:25;;;;;;;6.23;3.50;;;6.90;79.60;;;;;;2098372;28;20191;-62
2021/03/04 03:59:27;;;;;;;5.97;4.07;;;6.90;79.20;;;;;;2090598;28;20180;-62
2021/03/04 04:00:28;;;;;;;5.72;3.72;;;6.90;83.60;;;;;;2090245;28;20214;-62
2021/03/04 04:01:31;;;;;;;7.88;3.88;;;6.90;78.90;;;;;;2097469;28;20206;-62
2021/03/04 04:02:32;;;;;;;6.70;3.78;;;6.90;78.30;;;;;;2106780;28;20252;-62
2021/03/04 04:03:34;;;;;;;8.20;3.70;;;6.80;84.40;;;;;;2106517;28;20171;-62
2021/03/04 04:04:35;;;;;;;6.13;3.72;;;6.80;82.40;;;;;;2098277;28;20635;-61
2021/03/04 04:05:37;;;;;;;6.77;3.73;;;6.80;75.40;;;;;;2089930;28;20238;-62
2021/03/04 04:06:37;;;;;;;4.88;3.45;;;6.80;69.70;;;;;;2098350;28;20297;-62
2021/03/04 04:07:38;;;;;;;7.37;3.57;;;6.80;75.90;;;;;;2098546;28;20182;-62
2021/03/04 04:08:39;;;;;;;5.20;3.70;;;6.80;75.40;;;;;;2098217;28;20555;-60
2021/03/04 04:09:41;;;;;;;6.65;3.65;;;6.80;68.80;;;;;;2097926;28;20212;-62
2021/03/04 04:10:46;;;;;;;8.30;4.30;;;6.80;69.00;;;;;;2097907;28;20182;-62
2021/03/04 04:11:47;;;;;;;7.07;3.90;;;6.90;73.90;;;;;;2097703;28;20179;-62
2021/03/04 04:12:48;;;;;;;5.33;3.77;;;6.90;71.00;;;;;;2098622;28;20258;-62
2021/03/04 04:13:50;;;;;;;6.05;3.92;;;6.90;71.80;;;;;;2098807;28;20176;-62
2021/03/04 04:14:51;;;;;;;5.93;4.30;;;6.80;80.90;;;;;;2098968;28;20635;-62
2021/03/04 04:15:52;;;;;;;7.22;4.18;;;6.80;76.70;;;;;;2106385;28;20186;-61
2021/03/04 04:16:53;;;;;;;7.10;3.60;;;6.80;75.50;;;;;;2106426;28;20188;-62
2021/03/04 04:17:58;;;;;;;7.67;4.00;;;6.80;81.50;;;;;;2097871;28;20643;-61
2021/03/04 04:18:59;;;;;;;6.45;3.75;;;6.70;91.30;;;;;;2098105;28;20160;-62
2021/03/04 04:20:05;;;;;;;7.90;3.92;;;6.60;89.70;;;;;;2096729;28;20191;-62
2021/03/04 04:21:05;;;;;;;6.60;4.20;;;6.60;70.80;;;;;;2089855;28;20756;-62
2021/03/04 04:22:06;;;;;;;6.40;3.80;;;6.70;71.30;;;;;;2098570;28;20183;-61
2021/03/04 04:23:07;;;;;;;7.10;3.97;;;6.70;81.90;;;;;;2089652;28;20669;-61
2021/03/04 04:24:09;;;;;;;8.25;3.83;;;6.70;74.90;;;;;;2089784;28;20186;-61
2021/03/04 04:25:12;;;;;;;11.25;4.47;;;6.70;67.20;;;;;;2089797;28;20188;-62
2021/03/04 04:26:13;;;;;;;6.18;4.05;;;6.80;65.00;;;;;;2081634;28;20180;-61
2021/03/04 04:27:14;;;;;;;8.18;4.80;;;6.80;65.10;;;;;;2089742;28;20550;-62
2021/03/04 04:28:15;;;;;;;6.20;3.77;;;6.90;65.20;;;;;;2098554;28;20197;-63
2021/03/04 04:29:16;;;;;;;7.75;4.07;;;6.90;63.70;;;;;;2098356;28;20207;-63
2021/03/04 04:30:19;;;;;;;6.13;4.30;;;7.00;63.20;;;;;;2098466;28;20202;-63
2021/03/04 04:31:21;;;;;;;8.73;4.20;;;7.00;63.80;;;;;;2097766;28;20673;-62
2021/03/04 04:32:22;;;;;;;8.13;4.50;;;7.00;62.40;;;;;;2098566;28;20190;-63
2021/03/04 04:33:23;;;;;;;9.53;4.43;;;7.00;62.00;;;;;;2098483;28;20219;-62
2021/03/04 04:34:23;;;;;;;8.43;4.50;;;7.00;62.00;;;;;;2098397;28;20265;-63
2021/03/04 04:35:24;;;;;;;7.07;4.43;;;7.10;62.00;;;;;;2098350;28;20261;-62
2021/03/04 04:36:25;;;;;;;8.73;4.50;;;7.00;62.30;;;;;;2098274;28;20200;-63
2021/03/04 04:37:25;;;;;;;7.50;4.67;;;7.00;62.90;;;;;;2098264;28;20195;-63
2021/03/04 04:38:26;;;;;;;9.03;4.50;;;7.00;63.50;;;;;;2098320;28;20175;-63
2021/03/04 04:39:27;;;;;;;9.40;4.17;;;7.00;60.40;;;;;;2098227;28;20286;-63
2021/03/04 04:40:27;;;;;;;8.77;4.30;;;7.00;60.10;;;;;;2098158;28;20178;-62
2021/03/04 04:41:28;;;;;;;7.87;4.20;;;7.00;58.90;;;;;;2097711;28;20189;-62
2021/03/04 04:42:29;;;;;;;8.50;4.40;;;7.10;59.50;;;;;;2089347;28;20175;-63
2021/03/04 04:43:30;;;;;;;8.35;4.28;;;7.10;58.40;;;;;;2089439;28;20180;-63
2021/03/04 04:44:31;;;;;;;11.17;4.50;;;7.10;58.30;;;;;;2098179;28;20597;-62
2021/03/04 04:45:32;;;;;;;6.05;3.92;;;7.10;58.50;;;;;;2098205;28;20259;-63
2021/03/04 04:46:33;;;;;;;6.78;4.20;;;7.10;58.10;;;;;;2098185;28;20183;-63
2021/03/04 04:47:35;;;;;;;8.57;4.37;;;7.20;58.60;;;;;;2098176;28;20176;-63
2021/03/04 04:48:35;;;;;;;8.30;4.10;;;7.20;59.50;;;;;;2098157;28;20275;-63
2021/03/04 04:49:36;;;;;;;8.80;4.80;;;7.10;59.30;;;;;;2098125;28;20208;-63
2021/03/04 04:50:37;;;;;;;7.93;5.00;;;7.10;59.30;;;;;;2098053;28;20167;-62
2021/03/04 04:51:37;;;;;;;13.53;5.77;;;7.10;59.60;;;;;;2097575;28;20862;-63
2021/03/04 04:52:38;;;;;;;13.07;6.00;;;7.00;59.90;;;;;;2098223;28;20175;-64
2021/03/04 04:53:40;;;;;;;19.43;7.53;;;7.00;60.10;;;;;;2098146;28;20670;-62
2021/03/04 04:54:41;;;;;;;21.52;8.50;;;7.00;60.90;;;;;;2097482;28;20180;-62
2021/03/04 04:55:42;;;;;;;27.83;10.57;;;6.90;61.00;;;;;;2097411;28;20183;-63
2021/03/04 04:56:42;;;;;;;24.13;10.67;;;6.90;61.80;;;;;;2097993;28;20195;-63
2021/03/04 04:57:43;;;;;;;18.67;8.50;;;6.90;62.60;;;;;;2097328;28;20187;-63
2021/03/04 04:58:44;;;;;;;13.57;6.37;;;6.90;62.90;;;;;;2098199;28;20186;-62
2021/03/04 04:59:45;;;;;;;9.87;5.43;;;6.80;63.60;;;;;;2098098;28;20237;-63
2021/03/04 05:00:46;;;;;;;7.97;4.80;;;6.80;64.40;;;;;;2097812;28;20294;-63
2021/03/04 05:01:46;;;;;;;11.73;5.30;;;6.70;65.10;;;;;;2097674;28;20595;-63
2021/03/04 05:02:47;;;;;;;7.33;4.07;;;6.70;66.20;;;;;;2097791;28;20194;-63
2021/03/04 05:03:48;;;;;;;9.57;4.50;;;6.60;66.60;;;;;;2098063;28;20662;-63
2021/03/04 05:04:49;;;;;;;9.90;4.30;;;6.50;66.90;;;;;;2098086;28;20189;-63
2021/03/04 05:05:50;;;;;;;8.07;4.57;;;6.50;67.30;;;;;;2098143;28;20183;-64
2021/03/04 05:06:50;;;;;;;8.00;4.67;;;6.50;67.90;;;;;;2097927;28;20179;-63
2021/03/04 05:07:51;;;;;;;9.73;4.80;;;6.50;68.60;;;;;;2098207;28;20179;-63
2021/03/04 05:08:52;;;;;;;8.33;4.77;;;6.40;69.40;;;;;;2097898;28;20182;-62
2021/03/04 05:09:52;;;;;;;7.17;4.70;;;6.40;69.80;;;;;;2098018;28;20171;-62
2021/03/04 05:10:53;;;;;;;6.63;4.33;;;6.40;69.80;;;;;;2097175;28;20724;-63
2021/03/04 05:11:54;;;;;;;10.33;4.30;;;6.40;69.50;;;;;;2097821;28;20202;-63
2021/03/04 05:12:54;;;;;;;8.20;4.30;;;6.40;68.80;;;;;;2098003;28;20258;-63
2021/03/04 05:13:55;;;;;;;9.93;4.43;;;6.40;68.90;;;;;;2098074;28;20178;-63
2021/03/04 05:14:56;;;;;;;10.30;4.43;;;6.40;69.10;;;;;;2097988;28;20210;-61
2021/03/04 05:15:57;;;;;;;6.57;4.20;;;6.40;68.90;;;;;;2098171;28;20187;-63
2021/03/04 05:16:57;;;;;;;7.10;4.20;;;6.40;68.80;;;;;;2097944;28;20259;-62
2021/03/04 05:17:58;;;;;;;10.23;5.00;;;6.40;70.20;;;;;;2098033;28;20197;-63
2021/03/04 05:18:59;;;;;;;10.10;4.75;;;6.40;71.40;;;;;;2097904;28;20179;-63
2021/03/04 05:20:00;;;;;;;7.87;4.40;;;6.40;73.90;;;;;;2098005;28;20184;-62
2021/03/04 05:21:00;;;;;;;9.50;5.13;;;6.40;82.70;;;;;;2097232;28;20210;-62
2021/03/04 05:22:01;;;;;;;7.20;4.30;;;6.40;84.90;;;;;;2098037;28;20183;-63
2021/03/04 05:23:02;;;;;;;8.13;4.77;;;6.30;78.60;;;;;;2097852;28;20244;-62
2021/03/04 05:24:03;;;;;;;8.15;4.88;;;6.30;77.30;;;;;;2098100;28;20662;-62
2021/03/04 05:25:05;;;;;;;6.70;4.32;;;6.30;74.80;;;;;;2097861;28;20204;-63
2021/03/04 05:26:06;;;;;;;8.82;5.03;;;6.30;83.80;;;;;;2098138;28;20178;-62
2021/03/04 05:27:07;;;;;;;7.67;5.20;;;6.20;77.40;;;;;;2097961;28;20650;-63
2021/03/04 05:28:08;;;;;;;5.82;4.70;;;6.20;75.70;;;;;;2097911;28;20179;-63